createdAt,value
2018-08-30T00:01:47.080Z,95711.00
2018-08-30T00:04:17.488Z,95704.00
2018-08-30T00:06:48.383Z,95707.00
2018-08-30T00:09:18.918Z,95703.00
2018-08-30T00:11:49.490Z,95709.00
2018-08-30T00:14:19.927Z,95715.00
2018-08-30T00:16:50.564Z,95719.00
2018-08-30T00:19:21.093Z,95724.00
2018-08-30T00:21:53.404Z,95728.00
2018-08-30T00:24:23.927Z,95734.00
2018-08-30T00:28:24.047Z,95733.00
2018-08-30T00:30:54.694Z,95731.00
2018-08-30T00:33:31.702Z,95728.00
2018-08-30T00:36:07.684Z,95726.00
2018-08-30T00:38:38.217Z,95726.00
2018-08-30T00:41:08.960Z,95728.00
2018-08-30T00:43:39.462Z,95670.00
2018-08-30T00:46:11.335Z,95734.00
2018-08-30T00:48:41.929Z,95738.00
2018-08-30T00:51:12.419Z,95747.00
2018-08-30T00:53:43.255Z,95744.00
2018-08-30T00:56:14.500Z,95757.00
2018-08-30T00:58:44.926Z,95776.00
2018-08-30T01:01:15.279Z,95788.00
2018-08-30T01:03:45.962Z,95758.00
2018-08-30T01:06:16.698Z,95756.00
2018-08-30T01:08:47.278Z,95769.00
2018-08-30T01:11:23.520Z,95794.00
2018-08-30T01:13:54.287Z,95772.00
2018-08-30T01:16:24.837Z,95775.00
2018-08-30T01:19:02.489Z,95778.00
2018-08-30T01:21:32.956Z,95777.00
2018-08-30T01:24:07.295Z,95775.00
2018-08-30T01:26:37.922Z,95775.00
2018-08-30T01:29:08.778Z,95776.00
2018-08-30T01:31:39.136Z,95780.00
2018-08-30T01:34:13.068Z,95786.00
2018-08-30T01:36:45.892Z,95784.00
2018-08-30T01:39:16.378Z,95792.00
2018-08-30T01:41:46.809Z,95783.00
2018-08-30T01:44:17.121Z,95788.00
2018-08-30T01:46:47.579Z,95783.00
2018-08-30T01:49:27.593Z,95796.00
2018-08-30T01:51:58.149Z,95798.00
2018-08-30T01:54:29.154Z,95785.00
2018-08-30T01:56:59.846Z,95789.00
2018-08-30T01:59:30.430Z,95800.00
2018-08-30T02:02:00.927Z,95734.00
2018-08-30T02:04:31.290Z,95825.00
2018-08-30T02:07:02.095Z,95795.00
2018-08-30T02:09:32.538Z,95791.00
2018-08-30T02:12:03.042Z,95795.00
2018-08-30T02:14:33.704Z,95790.00
2018-08-30T02:17:04.175Z,95789.00
2018-08-30T02:19:34.518Z,95798.00
2018-08-30T02:22:04.838Z,95804.00
2018-08-30T02:24:35.142Z,95801.00
2018-08-30T02:27:05.784Z,95799.00
2018-08-30T02:29:36.336Z,95841.00
2018-08-30T02:32:07.043Z,95797.00
2018-08-30T02:34:37.419Z,95802.00
2018-08-30T02:37:08.099Z,95845.00
2018-08-30T02:39:38.453Z,95814.00
2018-08-30T02:42:18.850Z,95811.00
2018-08-30T02:44:49.169Z,95809.00
2018-08-30T02:47:19.654Z,95808.00
2018-08-30T02:49:49.982Z,95809.00
2018-08-30T02:52:20.300Z,95810.00
2018-08-30T02:55:10.704Z,95797.00
2018-08-30T02:57:54.744Z,95806.00
2018-08-30T03:00:25.262Z,95812.00
2018-08-30T03:02:56.450Z,95814.00
2018-08-30T03:05:27.146Z,95821.00
2018-08-30T03:07:57.766Z,95816.00
2018-08-30T03:10:28.359Z,95821.00
2018-08-30T03:12:59.140Z,95825.00
2018-08-30T03:15:29.837Z,95834.00
2018-08-30T03:18:00.586Z,95828.00
2018-08-30T03:20:31.295Z,95833.00
2018-08-30T03:23:02.751Z,95832.00
2018-08-30T03:25:33.134Z,95834.00
2018-08-30T03:28:04.382Z,95828.00
2018-08-30T03:30:34.905Z,95832.00
2018-08-30T03:33:05.341Z,95824.00
2018-08-30T03:35:35.776Z,95822.00
2018-08-30T03:38:10.693Z,95820.00
2018-08-30T03:40:41.639Z,95825.00
2018-08-30T03:43:12.866Z,95826.00
2018-08-30T03:45:43.269Z,95829.00
2018-08-30T03:48:14.609Z,95825.00
2018-08-30T03:50:47.133Z,95838.00
2018-08-30T03:53:17.541Z,95840.00
2018-08-30T03:55:48.127Z,95831.00
2018-08-30T03:58:18.534Z,95841.00
2018-08-30T04:00:48.947Z,95834.00
2018-08-30T04:03:19.472Z,95830.00
2018-08-30T04:05:52.446Z,95843.00
2018-08-30T04:08:27.056Z,95840.00
2018-08-30T04:10:59.990Z,95845.00
2018-08-30T04:13:32.920Z,95848.00
2018-08-30T04:16:04.838Z,95839.00
2018-08-30T04:18:35.576Z,95834.00
2018-08-30T04:21:10.718Z,95833.00
2018-08-30T04:23:41.005Z,95831.00
2018-08-30T04:26:11.354Z,95840.00
2018-08-30T04:28:42.059Z,95843.00
2018-08-30T04:31:12.589Z,95844.00
2018-08-30T04:33:44.081Z,95851.00
2018-08-30T04:36:21.407Z,95852.00
2018-08-30T04:38:51.830Z,95856.00
2018-08-30T04:41:22.099Z,95854.00
2018-08-30T04:43:52.830Z,95845.00
2018-08-30T04:46:23.145Z,95845.00
2018-08-30T04:48:53.830Z,95852.00
2018-08-30T04:51:24.647Z,95852.00
2018-08-30T04:53:55.202Z,95847.00
2018-08-30T04:56:26.133Z,95847.00
2018-08-30T04:58:56.600Z,95850.00
2018-08-30T05:01:29.998Z,95854.00
2018-08-30T05:04:00.678Z,95861.00
2018-08-30T05:06:31.189Z,95868.00
2018-08-30T05:09:06.306Z,95865.00
2018-08-30T05:11:36.758Z,95866.00
2018-08-30T05:14:07.506Z,95867.00
2018-08-30T05:16:38.280Z,95870.00
2018-08-30T05:19:09.266Z,95887.00
2018-08-30T05:21:39.636Z,95887.00
2018-08-30T05:24:10.342Z,95892.00
2018-08-30T05:26:40.614Z,95885.00
2018-08-30T05:29:11.054Z,95815.00
2018-08-30T05:31:41.886Z,95900.00
2018-08-30T05:34:12.245Z,95907.00
2018-08-30T05:36:42.595Z,95913.00
2018-08-30T05:39:12.926Z,95914.00
2018-08-30T05:41:43.285Z,95921.00
2018-08-30T05:44:13.638Z,95915.00
2018-08-30T05:46:43.949Z,95911.00
2018-08-30T05:49:14.278Z,95916.00
2018-08-30T05:51:44.587Z,95929.00
2018-08-30T05:54:17.903Z,95933.00
2018-08-30T05:56:48.305Z,95937.00
2018-08-30T05:59:42.620Z,95937.00
2018-08-30T06:02:13.235Z,95942.00
2018-08-30T06:04:43.575Z,95937.00
2018-08-30T06:07:14.012Z,95933.00
2018-08-30T06:09:44.323Z,95931.00
2018-08-30T06:12:14.729Z,95942.00
2018-08-30T06:14:45.121Z,95937.00
2018-08-30T06:17:16.042Z,95932.00
2018-08-30T06:19:46.469Z,95936.00
2018-08-30T06:22:16.932Z,95950.00
2018-08-30T06:24:47.322Z,95952.00
2018-08-30T06:27:18.858Z,95951.00
2018-08-30T06:29:49.194Z,95955.00
2018-08-30T06:32:19.694Z,95946.00
2018-08-30T06:34:50.154Z,95951.00
2018-08-30T06:37:21.405Z,95950.00
2018-08-30T06:39:53.031Z,95877.00
2018-08-30T06:42:30.092Z,95962.00
2018-08-30T06:45:07.341Z,95962.00
2018-08-30T06:47:37.693Z,95960.00
2018-08-30T06:50:08.117Z,95962.00
2018-08-30T06:52:39.522Z,95958.00
2018-08-30T06:55:09.874Z,95959.00
2018-08-30T06:57:40.286Z,95970.00
2018-08-30T07:00:10.993Z,95959.00
2018-08-30T07:02:41.324Z,95956.00
2018-08-30T07:05:11.652Z,95960.00
2018-08-30T07:07:41.965Z,95973.00
2018-08-30T07:10:12.294Z,95972.00
2018-08-30T07:12:42.649Z,95962.00
2018-08-30T07:15:12.956Z,95980.00
2018-08-30T07:17:43.325Z,95981.00
2018-08-30T07:20:13.793Z,95994.00
2018-08-30T07:22:44.139Z,96004.00
2018-08-30T07:25:14.441Z,96005.00
2018-08-30T07:27:44.806Z,96008.00
2018-08-30T07:30:15.454Z,96005.00
2018-08-30T07:32:45.790Z,96008.00
2018-08-30T07:35:16.385Z,96027.00
2018-08-30T07:37:46.745Z,96016.00
2018-08-30T07:40:17.145Z,96016.00
2018-08-30T07:42:47.568Z,96031.00
2018-08-30T07:45:18.156Z,96021.00
2018-08-30T07:47:48.572Z,96031.00
2018-08-30T07:50:18.951Z,96026.00
2018-08-30T07:52:49.341Z,96030.00
2018-08-30T07:55:19.744Z,96020.00
2018-08-30T07:57:50.125Z,96035.00
2018-08-30T08:00:20.921Z,96036.00
2018-08-30T08:02:52.313Z,96030.00
2018-08-30T08:05:22.965Z,96031.00
2018-08-30T08:07:53.915Z,96032.00
2018-08-30T08:10:24.732Z,96036.00
2018-08-30T08:12:55.274Z,96037.00
2018-08-30T08:15:25.718Z,96028.00
2018-08-30T08:17:56.172Z,96036.00
2018-08-30T08:20:26.938Z,96066.00
2018-08-30T08:22:57.416Z,96050.00
2018-08-30T08:25:28.700Z,96049.00
2018-08-30T08:27:59.135Z,96046.00
2018-08-30T08:30:29.452Z,96060.00
2018-08-30T08:33:00.121Z,96054.00
2018-08-30T08:35:30.435Z,96062.00
2018-08-30T08:38:00.899Z,96052.00
2018-08-30T08:40:31.560Z,96064.00
2018-08-30T08:43:02.042Z,96062.00
2018-08-30T08:45:32.389Z,96063.00
2018-08-30T08:48:02.746Z,96064.00
2018-08-30T08:50:33.411Z,96071.00
2018-08-30T08:53:03.849Z,96074.00
2018-08-30T08:55:34.165Z,96070.00
2018-08-30T08:58:04.645Z,96068.00
2018-08-30T09:00:35.024Z,95990.00
2018-08-30T09:03:05.444Z,96075.00
2018-08-30T09:05:35.769Z,96071.00
2018-08-30T09:08:07.539Z,96067.00
2018-08-30T09:10:37.910Z,96071.00
2018-08-30T09:13:08.343Z,96015.00
2018-08-30T09:15:38.645Z,96075.00
2018-08-30T09:18:09.061Z,95703.00
2018-08-30T09:20:39.344Z,96067.00
2018-08-30T09:23:09.771Z,96069.00
2018-08-30T09:25:40.017Z,96071.00
2018-08-30T09:28:10.362Z,96079.00
2018-08-30T09:30:40.761Z,96076.00
2018-08-30T09:33:11.109Z,96078.00
2018-08-30T09:35:41.482Z,96083.00
2018-08-30T09:38:11.882Z,96068.00
2018-08-30T09:40:42.201Z,96078.00
2018-08-30T09:43:12.677Z,96075.00
2018-08-30T09:45:43.327Z,96108.00
2018-08-30T09:48:13.743Z,96088.00
2018-08-30T09:50:44.188Z,96087.00
2018-08-30T09:53:14.585Z,96080.00
2018-08-30T09:55:45.017Z,96088.00
2018-08-30T09:58:15.411Z,96090.00
2018-08-30T10:00:51.392Z,96090.00
2018-08-30T10:03:21.783Z,96084.00
2018-08-30T10:05:52.118Z,96076.00
2018-08-30T10:08:22.583Z,96092.00
2018-08-30T10:10:52.975Z,96088.00
2018-08-30T10:13:23.430Z,96089.00
2018-08-30T10:15:53.827Z,96075.00
2018-08-30T10:18:24.638Z,96078.00
2018-08-30T10:20:55.245Z,96082.00
2018-08-30T10:23:26.093Z,96082.00
2018-08-30T10:25:56.484Z,96085.00
2018-08-30T10:28:26.926Z,96085.00
2018-08-30T10:30:57.339Z,96079.00
2018-08-30T10:33:28.221Z,96086.00
2018-08-30T10:35:58.906Z,96082.00
2018-08-30T10:38:29.265Z,96082.00
2018-08-30T10:40:59.934Z,96083.00
2018-08-30T10:43:30.358Z,96073.00
2018-08-30T10:46:01.671Z,96072.00
2018-08-30T10:48:32.069Z,96074.00
2018-08-30T10:51:02.338Z,96070.00
2018-08-30T10:53:32.993Z,96071.00
2018-08-30T10:56:03.253Z,96075.00
2018-08-30T10:58:33.634Z,96082.00
2018-08-30T11:01:03.914Z,96072.00
2018-08-30T11:03:35.884Z,96098.00
2018-08-30T11:06:07.055Z,96080.00
2018-08-30T11:08:37.415Z,96084.00
2018-08-30T11:11:09.510Z,96083.00
2018-08-30T11:13:40.831Z,96092.00
2018-08-30T11:16:11.090Z,96092.00
2018-08-30T11:18:41.389Z,96086.00
2018-08-30T11:21:11.670Z,96090.00
2018-08-30T11:23:42.168Z,96081.00
2018-08-30T11:26:12.447Z,95775.00
2018-08-30T11:28:42.758Z,96084.00
2018-08-30T11:31:13.555Z,96095.00
2018-08-30T11:33:44.125Z,96093.00
2018-08-30T11:36:14.437Z,96111.00
2018-08-30T11:38:44.901Z,96095.00
2018-08-30T11:41:15.255Z,96106.00
2018-08-30T11:43:45.566Z,96103.00
2018-08-30T11:46:15.852Z,96119.00
2018-08-30T11:48:46.200Z,96113.00
2018-08-30T11:51:16.691Z,96113.00
2018-08-30T11:53:47.142Z,96111.00
2018-08-30T11:56:17.473Z,96129.00
2018-08-30T11:58:47.761Z,96108.00
2018-08-30T12:01:18.062Z,96112.00
2018-08-30T12:03:48.455Z,96117.00
2018-08-30T12:06:18.898Z,96104.00
2018-08-30T12:08:49.422Z,96096.00
2018-08-30T12:11:21.008Z,96105.00
2018-08-30T12:13:51.507Z,96106.00
2018-08-30T12:16:22.032Z,96118.00
2018-08-30T12:18:53.169Z,96116.00
2018-08-30T12:21:23.934Z,96116.00
2018-08-30T12:23:55.249Z,96110.00
2018-08-30T12:26:26.079Z,96116.00
2018-08-30T12:28:56.502Z,96117.00
2018-08-30T12:31:27.369Z,96116.00
2018-08-30T12:33:57.969Z,96111.00
2018-08-30T12:36:28.312Z,96113.00
2018-08-30T12:38:59.044Z,96103.00
2018-08-30T12:41:29.502Z,96098.00
2018-08-30T12:43:59.965Z,96100.00
2018-08-30T12:46:31.252Z,96108.00
2018-08-30T12:49:02.010Z,96106.00
2018-08-30T12:51:32.715Z,96109.00
2018-08-30T12:54:03.006Z,96114.00
2018-08-30T12:56:33.423Z,96104.00
2018-08-30T12:59:10.025Z,96105.00
2018-08-30T13:01:40.432Z,96104.00
2018-08-30T13:04:10.819Z,96109.00
2018-08-30T13:06:46.338Z,96099.00
2018-08-30T13:09:16.723Z,96095.00
2018-08-30T13:11:47.193Z,96095.00
2018-08-30T13:14:17.517Z,96093.00
2018-08-30T13:16:47.763Z,96097.00
2018-08-30T13:19:18.266Z,96098.00
2018-08-30T13:21:49.055Z,96101.00
2018-08-30T13:24:19.436Z,96098.00
2018-08-30T13:26:49.838Z,96105.00
2018-08-30T13:29:20.845Z,96106.00
2018-08-30T13:31:51.412Z,96053.00
2018-08-30T13:34:22.237Z,96100.00
2018-08-30T13:36:52.717Z,96099.00
2018-08-30T13:39:24.590Z,96106.00
2018-08-30T13:41:55.537Z,96113.00
2018-08-30T13:44:27.103Z,96112.00
2018-08-30T13:53:57.809Z,96105.00
2018-08-30T13:56:28.647Z,96104.00
2018-08-30T13:59:00.948Z,96113.00
2018-08-30T14:01:32.338Z,96113.00
2018-08-30T14:04:04.302Z,96110.00
2018-08-30T14:06:34.673Z,96106.00
2018-08-30T14:09:05.971Z,96102.00
2018-08-30T14:11:37.069Z,96101.00
2018-08-30T14:14:10.502Z,96101.00
2018-08-30T14:16:40.973Z,96092.00
2018-08-30T14:19:14.570Z,96104.00
2018-08-30T14:21:45.727Z,96103.00
2018-08-30T14:24:18.216Z,96099.00
2018-08-30T14:26:50.166Z,96095.00
2018-08-30T14:29:20.718Z,96097.00
2018-08-30T14:31:51.227Z,96104.00
2018-08-30T14:34:21.837Z,96100.00
2018-08-30T14:36:56.253Z,96108.00
2018-08-30T14:39:26.950Z,96102.00
2018-08-30T14:41:57.409Z,96101.00
2018-08-30T14:44:28.340Z,96106.00
2018-08-30T14:47:08.562Z,96110.00
2018-08-30T14:49:38.868Z,96100.00
2018-08-30T14:52:09.814Z,96104.00
2018-08-30T14:54:41.777Z,96111.00
2018-08-30T14:57:11.795Z,96111.00
2018-08-30T14:59:42.163Z,96111.00
2018-08-30T15:15:57.043Z,96117.00
2018-08-30T15:18:29.923Z,96122.00
2018-08-30T15:21:04.040Z,96123.00
2018-08-30T15:23:35.940Z,96123.00
2018-08-30T15:26:17.066Z,96123.00
2018-08-30T15:28:48.378Z,96123.00
2018-08-30T15:31:18.821Z,96126.00
2018-08-30T15:33:50.485Z,96132.00
2018-08-30T15:36:22.971Z,96129.00
2018-08-30T15:38:55.719Z,96124.00
2018-08-30T15:41:30.228Z,96122.00
2018-08-30T15:44:01.138Z,96128.00
2018-08-30T15:46:32.827Z,96127.00
2018-08-30T15:49:05.229Z,96121.00
2018-08-30T15:51:37.148Z,96121.00
2018-08-30T15:54:12.806Z,96124.00
2018-08-30T15:56:43.997Z,96122.00
2018-08-30T15:59:15.336Z,96123.00
2018-08-30T16:04:53.244Z,96115.00
2018-08-30T16:07:24.780Z,96117.00
2018-08-30T16:09:55.844Z,96121.00
2018-08-30T16:12:26.192Z,96122.00
2018-08-30T16:14:56.879Z,96116.00
2018-08-30T16:17:28.585Z,96112.00
2018-08-30T16:20:00.432Z,96113.00
2018-08-30T16:22:46.813Z,96114.00
2018-08-30T16:25:18.821Z,96113.00
2018-08-30T16:27:49.258Z,96119.00
2018-08-30T16:30:20.189Z,96117.00
2018-08-30T16:32:59.156Z,96118.00
2018-08-30T16:35:29.977Z,96116.00
2018-08-30T16:38:00.892Z,96119.00
2018-08-30T16:40:31.298Z,96109.00
2018-08-30T16:43:01.605Z,96116.00
2018-08-30T16:45:31.913Z,96119.00
2018-08-30T16:48:02.391Z,96116.00
2018-08-30T16:50:32.793Z,96123.00
2018-08-30T16:53:03.572Z,96125.00
2018-08-30T16:55:34.155Z,96120.00
2018-08-30T16:58:05.910Z,96122.00
2018-08-30T17:00:36.217Z,96120.00
2018-08-30T17:03:07.201Z,96127.00
2018-08-30T17:05:52.385Z,96121.00
2018-08-30T17:09:04.491Z,96125.00
2018-08-30T17:11:34.908Z,96119.00
2018-08-30T17:14:05.373Z,96119.00
2018-08-30T17:16:35.936Z,96126.00
2018-08-30T17:19:19.894Z,96127.00
2018-08-30T17:21:50.196Z,96120.00
2018-08-30T17:24:20.510Z,96125.00
2018-08-30T17:26:50.912Z,96122.00
2018-08-30T17:29:21.611Z,96127.00
2018-08-30T17:31:51.823Z,96123.00
2018-08-30T17:34:22.392Z,96123.00
2018-08-30T17:36:54.215Z,96126.00
2018-08-30T17:39:25.942Z,96128.00
2018-08-30T17:41:56.856Z,96121.00
2018-08-30T17:44:27.366Z,96127.00
2018-08-30T17:46:57.883Z,96121.00
2018-08-30T17:49:28.297Z,96129.00
2018-08-30T17:51:58.670Z,96126.00
2018-08-30T17:54:29.087Z,96134.00
2018-08-30T17:56:59.742Z,96139.00
2018-08-30T17:59:30.135Z,96138.00
2018-08-30T18:02:01.306Z,96138.00
2018-08-30T18:04:36.002Z,96138.00
2018-08-30T18:07:10.030Z,96140.00
2018-08-30T18:09:41.103Z,96141.00
2018-08-30T18:12:13.074Z,96138.00
2018-08-30T18:14:45.280Z,96148.00
2018-08-30T18:17:17.477Z,96147.00
2018-08-30T18:19:48.878Z,96150.00
2018-08-30T18:22:19.234Z,96149.00
2018-08-30T18:24:49.593Z,96162.00
2018-08-30T18:27:19.928Z,96158.00
2018-08-30T18:29:55.847Z,96157.00
2018-08-30T18:32:27.794Z,96159.00
2018-08-30T18:34:58.338Z,96193.00
2018-08-30T18:37:28.741Z,96164.00
2018-08-30T18:39:59.142Z,96168.00
2018-08-30T18:42:29.880Z,96166.00
2018-08-30T18:45:00.372Z,96179.00
2018-08-30T18:47:30.738Z,96170.00
2018-08-30T18:50:03.006Z,96175.00
2018-08-30T18:52:34.437Z,96176.00
2018-08-30T18:55:06.911Z,96174.00
2018-08-30T18:57:37.441Z,96173.00
2018-08-30T19:00:09.081Z,96177.00
2018-08-30T19:02:39.535Z,96173.00
2018-08-30T19:05:09.918Z,96177.00
2018-08-30T19:07:45.703Z,96184.00
2018-08-30T19:10:16.421Z,96188.00
2018-08-30T19:12:48.233Z,96187.00
2018-08-30T19:15:26.129Z,96100.00
2018-08-30T19:18:02.341Z,96191.00
2018-08-30T19:20:32.981Z,96191.00
2018-08-30T19:23:03.631Z,96189.00
2018-08-30T19:25:34.864Z,96191.00
2018-08-30T19:28:07.803Z,96197.00
2018-08-30T19:30:40.825Z,96196.00
2018-08-30T19:33:12.327Z,96205.00
2018-08-30T19:35:49.199Z,96203.00
2018-08-30T19:38:23.640Z,96200.00
2018-08-30T19:41:02.886Z,96203.00
2018-08-30T19:43:34.294Z,96203.00
2018-08-30T19:46:05.366Z,96202.00
2018-08-30T19:48:38.701Z,96167.00
2018-08-30T19:51:11.019Z,96207.00
2018-08-30T19:53:41.861Z,96208.00
2018-08-30T19:56:14.151Z,96212.00
2018-08-30T19:58:45.674Z,96207.00
2018-08-30T20:01:17.366Z,96212.00
2018-08-30T20:03:48.172Z,96201.00
2018-08-30T20:06:19.107Z,96212.00
2018-08-30T20:08:49.473Z,96221.00
2018-08-30T20:11:20.420Z,96219.00
2018-08-30T20:13:52.145Z,96208.00
2018-08-30T20:16:24.614Z,96210.00
2018-08-30T20:18:57.559Z,96117.00
2018-08-30T20:21:28.128Z,96210.00
2018-08-30T20:23:59.158Z,96206.00
2018-08-30T20:26:29.768Z,96209.00
2018-08-30T20:29:00.413Z,96203.00
2018-08-30T20:31:32.180Z,96202.00
2018-08-30T20:34:02.657Z,96206.00
2018-08-30T20:36:33.071Z,96210.00
2018-08-30T20:39:05.785Z,96213.00
2018-08-30T20:41:36.318Z,96215.00
2018-08-30T20:44:07.321Z,96212.00
2018-08-30T20:46:39.240Z,96208.00
2018-08-30T20:49:11.863Z,96219.00
2018-08-30T20:51:42.233Z,96212.00
2018-08-30T20:54:13.570Z,96221.00
2018-08-30T20:56:43.992Z,96210.00
2018-08-30T20:59:19.557Z,96211.00
2018-08-30T21:01:51.414Z,96210.00
2018-08-30T21:04:25.776Z,96211.00
2018-08-30T21:06:57.209Z,96219.00
2018-08-30T21:09:30.380Z,96197.00
2018-08-30T21:12:09.523Z,96193.00
2018-08-30T21:14:41.328Z,96188.00
2018-08-30T21:17:15.070Z,96184.00
2018-08-30T21:19:48.194Z,96186.00
2018-08-30T21:22:19.673Z,96185.00
2018-08-30T21:24:50.189Z,96184.00
2018-08-30T21:27:21.753Z,96182.00
2018-08-30T21:29:52.727Z,96176.00
2018-08-30T21:32:23.162Z,96182.00
2018-08-30T21:34:53.716Z,96181.00
2018-08-30T21:37:25.827Z,96183.00
2018-08-30T21:39:59.954Z,96189.00
2018-08-30T21:42:30.951Z,96178.00
2018-08-30T21:45:01.299Z,96176.00
2018-08-30T21:47:31.740Z,96186.00
2018-08-30T21:50:02.617Z,96174.00
2018-08-30T21:52:33.369Z,96175.00
2018-08-30T21:55:03.874Z,96172.00
2018-08-30T21:57:34.421Z,96176.00
2018-08-30T22:00:05.768Z,96180.00
2018-08-30T22:02:36.369Z,96179.00
2018-08-30T22:05:10.188Z,96178.00
2018-08-30T22:07:44.840Z,96170.00
2018-08-30T22:10:18.740Z,96181.00
2018-08-30T22:12:49.771Z,96181.00
2018-08-30T22:15:21.357Z,96172.00
2018-08-30T22:17:53.082Z,96174.00
2018-08-30T22:20:28.042Z,96171.00
2018-08-30T22:23:00.671Z,96177.00
2018-08-30T22:25:32.675Z,96183.00
2018-08-30T22:28:04.227Z,96185.00
2018-08-30T22:30:35.310Z,96180.00
2018-08-30T22:33:08.417Z,96192.00
2018-08-30T22:35:39.358Z,96184.00
2018-08-30T22:38:10.669Z,96183.00
2018-08-30T22:40:44.383Z,96189.00
2018-08-30T22:43:15.209Z,96182.00
2018-08-30T22:45:46.470Z,96182.00
2018-08-30T22:48:17.043Z,96184.00
2018-08-30T22:50:47.396Z,96180.00
2018-08-30T22:53:20.577Z,96191.00
2018-08-30T22:55:52.043Z,96170.00
2018-08-30T22:58:23.098Z,96168.00
2018-08-30T23:00:55.101Z,96163.00
2018-08-30T23:03:26.397Z,96165.00
2018-08-30T23:05:56.854Z,96156.00
2018-08-30T23:08:27.281Z,96154.00
2018-08-30T23:10:59.430Z,96157.00
2018-08-30T23:13:36.052Z,96157.00
2018-08-30T23:16:06.440Z,96155.00
2018-08-30T23:18:37.001Z,96152.00
2018-08-30T23:21:07.473Z,96155.00
2018-08-30T23:23:37.885Z,96152.00
2018-08-30T23:26:08.983Z,96148.00
2018-08-30T23:28:39.398Z,96141.00
2018-08-30T23:31:10.282Z,96134.00
2018-08-30T23:33:40.821Z,96138.00
2018-08-30T23:36:11.738Z,96148.00
2018-08-30T23:38:49.247Z,96140.00
2018-08-30T23:41:19.620Z,96142.00
2018-08-30T23:43:50.146Z,96139.00
2018-08-30T23:46:23.089Z,96142.00
2018-08-30T23:48:53.937Z,96152.00
2018-08-30T23:51:26.785Z,96135.00
2018-08-30T23:53:58.311Z,96142.00
2018-08-30T23:56:28.610Z,96144.00
2018-08-30T23:59:15.698Z,96134.00
